createdAt,value
2019-01-29T00:01:40.910Z,12.17
2019-01-29T00:04:10.637Z,11.23
2019-01-29T00:06:40.404Z,11.70
2019-01-29T00:09:10.953Z,12.10
2019-01-29T00:11:40.925Z,12.13
2019-01-29T00:14:10.672Z,12.87
2019-01-29T00:16:40.630Z,13.43
2019-01-29T00:19:10.399Z,13.20
2019-01-29T00:21:40.339Z,14.47
2019-01-29T00:24:10.251Z,14.10
2019-01-29T00:26:40.174Z,13.87
2019-01-29T00:29:09.853Z,13.27
2019-01-29T00:31:39.611Z,14.13
2019-01-29T00:34:09.304Z,13.33
2019-01-29T00:36:38.992Z,12.90
2019-01-29T00:39:09.635Z,12.87
2019-01-29T00:41:39.441Z,12.07
2019-01-29T00:44:09.057Z,13.00
2019-01-29T00:46:38.915Z,13.60
2019-01-29T00:49:08.704Z,12.93
2019-01-29T00:51:38.700Z,12.63
2019-01-29T00:54:08.564Z,11.90
2019-01-29T00:56:38.618Z,12.27
2019-01-29T00:59:08.141Z,11.33
2019-01-29T01:01:38.110Z,10.80
2019-01-29T01:04:08.190Z,12.37
2019-01-29T01:06:38.224Z,12.90
2019-01-29T01:09:09.620Z,11.23
2019-01-29T01:11:39.409Z,12.07
2019-01-29T01:14:09.390Z,11.70
2019-01-29T01:16:39.356Z,13.43
2019-01-29T01:19:09.429Z,12.17
2019-01-29T01:21:39.531Z,12.40
2019-01-29T01:24:09.403Z,11.43
2019-01-29T01:26:39.222Z,11.23
2019-01-29T01:29:09.005Z,11.63
2019-01-29T01:31:38.802Z,11.60
2019-01-29T01:34:08.565Z,11.47
2019-01-29T01:36:38.412Z,10.43
2019-01-29T01:39:09.251Z,11.93
2019-01-29T01:41:39.109Z,11.07
2019-01-29T01:44:08.998Z,12.27
2019-01-29T01:46:39.725Z,11.50
2019-01-29T01:49:09.513Z,12.23
2019-01-29T01:51:39.266Z,12.27
2019-01-29T01:54:09.029Z,12.33
2019-01-29T01:56:38.793Z,12.47
2019-01-29T01:59:08.733Z,12.50
2019-01-29T02:01:38.652Z,11.73
2019-01-29T02:04:08.561Z,13.07
2019-01-29T02:06:38.439Z,12.93
2019-01-29T02:09:10.024Z,13.20
2019-01-29T02:11:39.815Z,13.77
2019-01-29T02:14:09.528Z,13.47
2019-01-29T02:16:39.296Z,13.90
2019-01-29T02:19:09.185Z,13.07
2019-01-29T02:21:39.084Z,12.50
2019-01-29T02:24:09.092Z,13.40
2019-01-29T02:26:38.918Z,13.10
2019-01-29T02:29:08.639Z,13.10
2019-01-29T02:31:38.629Z,13.27
2019-01-29T02:34:08.263Z,12.20
2019-01-29T02:36:38.203Z,12.80
2019-01-29T02:39:09.598Z,13.37
2019-01-29T02:41:39.464Z,12.13
2019-01-29T02:44:09.362Z,12.27
2019-01-29T02:46:39.300Z,12.83
2019-01-29T02:49:10.052Z,13.17
2019-01-29T02:51:39.934Z,13.17
2019-01-29T02:54:09.669Z,13.80
2019-01-29T02:56:39.503Z,13.03
2019-01-29T02:59:09.277Z,12.37
2019-01-29T03:01:38.998Z,12.47
2019-01-29T03:04:08.844Z,12.97
2019-01-29T03:06:38.514Z,13.17
2019-01-29T03:09:10.073Z,11.20
2019-01-29T03:11:39.974Z,12.47
2019-01-29T03:14:09.590Z,13.10
2019-01-29T03:16:39.191Z,12.90
2019-01-29T03:19:08.872Z,12.83
2019-01-29T03:21:38.541Z,13.30
2019-01-29T03:24:08.248Z,11.10
2019-01-29T03:26:37.973Z,11.13
2019-01-29T03:29:07.665Z,11.93
2019-01-29T03:31:37.425Z,11.50
2019-01-29T03:34:07.307Z,11.70
2019-01-29T03:36:37.645Z,12.43
2019-01-29T03:39:09.393Z,13.27
2019-01-29T03:41:39.091Z,12.80
2019-01-29T03:44:08.947Z,12.50
2019-01-29T03:46:38.943Z,12.33
2019-01-29T03:49:08.634Z,12.50
2019-01-29T03:51:38.593Z,13.40
2019-01-29T03:54:08.359Z,12.77
2019-01-29T03:56:38.067Z,13.47
2019-01-29T03:59:07.877Z,13.90
2019-01-29T04:01:37.623Z,11.97
2019-01-29T04:04:07.422Z,13.67
2019-01-29T04:06:37.384Z,13.67
2019-01-29T04:09:09.379Z,13.47
2019-01-29T04:11:39.109Z,14.67
2019-01-29T04:14:08.975Z,14.27
2019-01-29T04:16:38.747Z,14.47
2019-01-29T04:19:08.649Z,13.87
2019-01-29T04:21:38.645Z,14.90
2019-01-29T04:24:08.378Z,15.53
2019-01-29T04:26:38.117Z,15.60
2019-01-29T04:29:08.193Z,17.57
2019-01-29T04:31:37.930Z,16.70
2019-01-29T04:34:07.664Z,16.03
2019-01-29T04:36:37.511Z,15.77
2019-01-29T04:39:09.528Z,18.73
2019-01-29T04:41:39.538Z,17.10
2019-01-29T04:44:09.401Z,16.87
2019-01-29T04:46:39.297Z,15.30
2019-01-29T04:49:09.163Z,16.00
2019-01-29T04:51:39.869Z,14.93
2019-01-29T04:54:09.554Z,17.00
2019-01-29T04:56:39.354Z,15.60
2019-01-29T04:59:09.428Z,17.07
2019-01-29T05:01:39.309Z,16.23
2019-01-29T05:04:09.098Z,16.23
2019-01-29T05:06:39.165Z,16.17
2019-01-29T05:09:09.858Z,16.60
2019-01-29T05:11:39.777Z,17.50
2019-01-29T05:14:09.578Z,17.80
2019-01-29T05:16:39.303Z,15.13
2019-01-29T05:19:09.108Z,17.50
2019-01-29T05:21:38.881Z,18.37
2019-01-29T05:24:08.836Z,15.70
2019-01-29T05:26:38.491Z,16.53
2019-01-29T05:29:08.254Z,17.30
2019-01-29T05:31:38.081Z,17.60
2019-01-29T05:34:07.804Z,18.57
2019-01-29T05:36:37.706Z,17.67
2019-01-29T05:39:09.888Z,17.63
2019-01-29T05:41:39.591Z,16.67
2019-01-29T05:44:09.371Z,17.00
2019-01-29T05:46:39.221Z,17.80
2019-01-29T05:49:09.036Z,16.03
2019-01-29T05:51:40.640Z,14.93
2019-01-29T05:54:16.058Z,14.87
2019-01-29T05:56:42.169Z,15.03
2019-01-29T05:59:11.886Z,15.73
2019-01-29T06:01:42.067Z,15.77
2019-01-29T06:04:11.967Z,15.27
2019-01-29T06:06:41.853Z,15.50
2019-01-29T06:09:11.666Z,16.03
2019-01-29T06:11:41.499Z,16.30
2019-01-29T06:14:11.177Z,15.63
2019-01-29T06:16:40.979Z,18.17
2019-01-29T06:19:12.042Z,17.63
2019-01-29T06:21:41.827Z,17.83
2019-01-29T06:24:11.656Z,15.33
2019-01-29T06:26:41.719Z,13.97
2019-01-29T06:29:11.656Z,17.40
2019-01-29T06:31:41.627Z,15.63
2019-01-29T06:34:11.415Z,17.00
2019-01-29T06:36:41.190Z,17.80
2019-01-29T06:39:10.943Z,16.77
2019-01-29T06:41:40.662Z,18.53
2019-01-29T06:44:10.653Z,15.77
2019-01-29T06:46:40.400Z,16.00
2019-01-29T06:49:10.304Z,16.77
2019-01-29T06:51:40.083Z,19.13
2019-01-29T06:54:10.057Z,22.53
2019-01-29T06:56:39.766Z,22.13
2019-01-29T06:59:09.616Z,23.53
2019-01-29T07:01:39.617Z,23.67
2019-01-29T07:04:09.399Z,23.30
2019-01-29T07:06:39.381Z,18.63
2019-01-29T07:09:10.198Z,19.17
2019-01-29T07:11:39.874Z,19.33
2019-01-29T07:14:09.866Z,18.80
2019-01-29T07:17:04.734Z,16.10
2019-01-29T07:19:36.926Z,16.77
2019-01-29T07:22:07.134Z,16.33
2019-01-29T07:24:42.801Z,16.07
2019-01-29T07:27:08.453Z,17.17
2019-01-29T07:29:38.343Z,18.13
2019-01-29T07:32:09.432Z,16.57
2019-01-29T07:34:39.392Z,19.83
2019-01-29T07:37:09.241Z,19.43
2019-01-29T07:39:38.972Z,20.47
2019-01-29T07:42:10.132Z,19.50
2019-01-29T07:44:40.036Z,19.40
2019-01-29T07:47:10.062Z,23.50
2019-01-29T07:49:39.915Z,25.07
2019-01-29T07:52:09.989Z,21.57
2019-01-29T07:54:39.786Z,18.90
2019-01-29T07:57:09.763Z,17.07
2019-01-29T07:59:39.642Z,18.60
2019-01-29T08:02:09.528Z,19.43
2019-01-29T08:04:39.306Z,19.13
2019-01-29T08:07:09.226Z,19.07
2019-01-29T08:09:38.997Z,19.07
2019-01-29T08:12:11.179Z,18.63
2019-01-29T08:14:40.903Z,18.23
2019-01-29T08:17:10.741Z,19.00
2019-01-29T08:19:40.506Z,16.70
2019-01-29T08:22:10.682Z,17.90
2019-01-29T08:24:40.477Z,17.30
2019-01-29T08:27:10.402Z,15.50
2019-01-29T08:29:40.286Z,14.33
2019-01-29T08:32:10.241Z,14.13
2019-01-29T08:34:40.087Z,14.83
2019-01-29T08:37:10.088Z,17.87
2019-01-29T08:39:39.844Z,18.00
2019-01-29T08:42:09.758Z,17.20
2019-01-29T08:44:40.714Z,14.57
2019-01-29T08:47:10.599Z,12.80
2019-01-29T08:49:40.408Z,14.83
2019-01-29T08:52:11.649Z,16.37
2019-01-29T08:54:41.482Z,13.67
2019-01-29T08:57:11.413Z,13.37
2019-01-29T08:59:42.479Z,17.57
2019-01-29T09:02:12.342Z,15.17
2019-01-29T09:04:43.213Z,20.17
2019-01-29T09:07:13.001Z,14.13
2019-01-29T09:09:42.819Z,15.83
2019-01-29T09:12:12.467Z,18.30
2019-01-29T09:14:42.337Z,16.30
2019-01-29T09:17:12.057Z,12.47
2019-01-29T09:19:42.014Z,10.03
2019-01-29T09:22:11.675Z,10.90
2019-01-29T09:24:41.293Z,12.07
2019-01-29T09:27:11.163Z,8.30
2019-01-29T09:29:41.048Z,12.17
2019-01-29T09:32:11.068Z,12.23
2019-01-29T09:34:41.024Z,8.90
2019-01-29T09:37:10.664Z,9.30
2019-01-29T09:39:40.475Z,9.23
2019-01-29T09:42:10.141Z,9.10
2019-01-29T09:44:40.040Z,23.33
2019-01-29T09:47:10.124Z,9.83
2019-01-29T09:49:39.794Z,10.37
2019-01-29T09:52:09.785Z,10.63
2019-01-29T09:54:40.961Z,10.17
2019-01-29T09:57:10.778Z,15.20
2019-01-29T09:59:40.432Z,14.57
2019-01-29T10:02:10.240Z,13.90
2019-01-29T10:04:40.232Z,9.40
2019-01-29T10:07:10.317Z,10.00
2019-01-29T10:09:40.216Z,8.50
2019-01-29T10:12:10.078Z,6.37
2019-01-29T10:14:41.077Z,9.13
2019-01-29T10:17:11.443Z,5.63
2019-01-29T10:19:41.140Z,5.10
2019-01-29T10:22:11.032Z,4.70
2019-01-29T10:24:41.349Z,5.53
2019-01-29T10:27:11.148Z,5.87
2019-01-29T10:29:40.755Z,4.53
2019-01-29T10:32:10.421Z,5.97
2019-01-29T10:34:40.332Z,5.37
2019-01-29T10:37:10.535Z,5.03
2019-01-29T10:39:40.455Z,5.47
2019-01-29T10:42:10.240Z,4.90
2019-01-29T10:44:39.843Z,5.17
2019-01-29T10:47:11.321Z,5.07
2019-01-29T10:49:41.323Z,4.80
2019-01-29T10:52:11.258Z,4.87
2019-01-29T10:54:41.122Z,5.77
2019-01-29T10:57:11.099Z,5.40
2019-01-29T10:59:40.910Z,5.57
2019-01-29T11:02:11.136Z,5.53
2019-01-29T11:04:41.024Z,5.67
2019-01-29T11:07:10.861Z,6.30
2019-01-29T11:09:40.833Z,5.83
2019-01-29T11:12:10.838Z,5.60
2019-01-29T11:14:40.718Z,5.53
2019-01-29T11:17:10.531Z,7.10
2019-01-29T11:19:40.589Z,5.57
2019-01-29T11:22:10.365Z,5.73
2019-01-29T11:24:40.391Z,5.90
2019-01-29T11:27:10.343Z,6.60
2019-01-29T11:29:40.194Z,5.60
2019-01-29T11:32:10.131Z,4.90
2019-01-29T11:34:40.025Z,5.17
2019-01-29T11:37:12.020Z,4.67
2019-01-29T11:39:41.608Z,5.43
2019-01-29T11:42:11.359Z,6.80
2019-01-29T11:44:41.229Z,6.30
2019-01-29T11:47:20.432Z,5.77
2019-01-29T11:49:50.304Z,6.50
2019-01-29T11:52:20.014Z,6.03
2019-01-29T11:54:50.424Z,5.97
2019-01-29T11:57:20.434Z,6.47
2019-01-29T11:59:50.101Z,5.97
2019-01-29T12:02:28.064Z,5.20
2019-01-29T12:04:51.332Z,5.53
2019-01-29T12:07:21.310Z,5.27
2019-01-29T12:09:51.038Z,5.30
2019-01-29T12:12:20.883Z,5.30
2019-01-29T12:14:50.634Z,6.50
2019-01-29T12:17:20.516Z,5.00
2019-01-29T12:19:50.325Z,5.33
2019-01-29T12:22:20.050Z,4.37
2019-01-29T12:24:49.928Z,4.83
2019-01-29T12:27:19.534Z,5.30
2019-01-29T12:29:50.729Z,5.10
2019-01-29T12:32:20.827Z,6.30
2019-01-29T12:34:51.895Z,6.10
2019-01-29T12:37:21.763Z,5.73
2019-01-29T12:39:51.579Z,6.17
2019-01-29T12:42:21.371Z,6.53
2019-01-29T12:44:51.039Z,6.77
2019-01-29T12:47:20.983Z,5.83
2019-01-29T12:49:50.901Z,6.20
2019-01-29T12:52:39.545Z,5.40
2019-01-29T12:55:10.652Z,7.23
2019-01-29T12:57:40.689Z,6.40
2019-01-29T13:00:12.753Z,6.97
2019-01-29T13:02:42.439Z,7.40
2019-01-29T13:05:12.989Z,7.80
2019-01-29T13:07:43.110Z,9.37
2019-01-29T13:10:16.616Z,9.63
2019-01-29T13:12:46.360Z,10.27
2019-01-29T13:15:18.410Z,9.67
2019-01-29T13:17:48.193Z,11.07
2019-01-29T13:20:19.348Z,11.03
2019-01-29T13:22:49.647Z,11.67
2019-01-29T13:25:19.682Z,11.43
2019-01-29T13:27:49.588Z,9.97
2019-01-29T13:30:28.725Z,13.33
2019-01-29T13:32:59.811Z,10.53
2019-01-29T13:35:34.702Z,10.90
2019-01-29T13:38:04.844Z,12.63
2019-01-29T13:40:34.737Z,14.13
2019-01-29T13:43:05.152Z,13.87
2019-01-29T13:45:34.941Z,13.80
2019-01-29T13:48:05.124Z,13.97
2019-01-29T13:50:37.871Z,15.80
2019-01-29T13:53:07.919Z,30.03
2019-01-29T13:55:37.929Z,27.47
2019-01-29T13:58:08.510Z,10.97
2019-01-29T14:00:38.866Z,10.93
2019-01-29T14:03:09.594Z,10.60
2019-01-29T14:05:39.498Z,10.70
2019-01-29T14:08:09.280Z,10.00
2019-01-29T14:10:39.292Z,11.63
2019-01-29T14:13:09.144Z,10.87
2019-01-29T14:15:45.184Z,13.03
2019-01-29T14:18:15.807Z,13.07
2019-01-29T14:20:45.595Z,12.60
2019-01-29T14:23:16.672Z,13.73
2019-01-29T14:25:46.549Z,14.73
2019-01-29T14:28:16.262Z,13.67
2019-01-29T14:30:46.163Z,13.37
2019-01-29T14:33:16.734Z,12.50
2019-01-29T14:35:46.668Z,13.47
2019-01-29T14:38:58.840Z,12.60
2019-01-29T14:41:28.701Z,13.13
2019-01-29T14:44:00.131Z,13.57
2019-01-29T14:46:30.065Z,14.03
2019-01-29T14:48:59.952Z,14.93
2019-01-29T14:51:29.849Z,12.87
2019-01-29T14:53:59.720Z,12.83
2019-01-29T14:56:29.542Z,14.13
2019-01-29T14:58:59.428Z,14.60
2019-01-29T15:01:29.551Z,14.17
2019-01-29T15:03:59.407Z,13.60
2019-01-29T15:06:32.698Z,12.47
2019-01-29T15:09:00.721Z,12.97
2019-01-29T15:11:30.596Z,11.67
2019-01-29T15:14:00.971Z,12.87
2019-01-29T15:16:50.146Z,11.03
2019-01-29T15:19:22.319Z,9.50
2019-01-29T15:21:52.204Z,10.57
2019-01-29T15:24:23.084Z,13.23
2019-01-29T15:26:52.877Z,11.17
2019-01-29T15:29:22.600Z,12.27
2019-01-29T15:31:52.565Z,11.17
2019-01-29T15:34:22.447Z,13.50
2019-01-29T15:36:52.343Z,24.53
2019-01-29T15:39:22.194Z,14.57
2019-01-29T15:41:52.175Z,12.67
2019-01-29T15:44:22.088Z,12.13
2019-01-29T15:46:52.052Z,12.60
2019-01-29T15:49:21.797Z,11.93
2019-01-29T15:51:51.420Z,11.77
2019-01-29T15:54:23.702Z,11.00
2019-01-29T15:56:53.500Z,11.60
2019-01-29T15:59:23.385Z,13.87
2019-01-29T16:01:54.693Z,13.63
2019-01-29T16:04:24.702Z,12.70
2019-01-29T16:06:54.502Z,13.30
2019-01-29T16:09:24.459Z,14.27
2019-01-29T16:11:54.324Z,14.63
2019-01-29T16:14:25.295Z,10.57
2019-01-29T16:16:56.550Z,11.67
2019-01-29T16:19:26.340Z,13.47
2019-01-29T16:21:56.048Z,16.67
2019-01-29T16:24:27.104Z,20.10
2019-01-29T16:26:56.908Z,30.83
2019-01-29T16:29:26.833Z,18.23
2019-01-29T16:31:56.877Z,23.93
2019-01-29T16:34:26.877Z,24.37
2019-01-29T16:36:56.674Z,28.17
2019-01-29T16:39:26.974Z,25.77
2019-01-29T16:41:56.719Z,25.27
2019-01-29T16:44:26.542Z,21.10
2019-01-29T16:46:56.782Z,23.30
2019-01-29T16:49:27.722Z,23.50
2019-01-29T16:51:57.397Z,24.33
2019-01-29T16:54:27.340Z,39.33
2019-01-29T16:56:57.295Z,51.40
2019-01-29T16:59:27.153Z,34.00
2019-01-29T17:01:57.089Z,27.50
2019-01-29T17:04:28.593Z,30.93
2019-01-29T17:06:58.452Z,19.93
2019-01-29T17:09:28.676Z,17.17
2019-01-29T17:11:58.439Z,14.40
2019-01-29T17:14:28.200Z,12.67
2019-01-29T17:16:59.280Z,14.00
2019-01-29T17:19:29.037Z,10.57
2019-01-29T17:21:59.081Z,10.83
2019-01-29T17:24:28.930Z,10.73
2019-01-29T17:26:58.750Z,10.80
2019-01-29T17:29:28.522Z,11.77
2019-01-29T17:31:58.476Z,10.77
2019-01-29T17:34:28.467Z,11.03
2019-01-29T17:36:58.381Z,10.63
2019-01-29T17:39:28.366Z,13.03
2019-01-29T17:41:58.080Z,14.50
2019-01-29T17:44:27.904Z,13.40
2019-01-29T17:46:57.907Z,13.83
2019-01-29T17:49:27.635Z,13.00
2019-01-29T17:51:57.450Z,10.90
2019-01-29T17:54:27.206Z,10.43
2019-01-29T17:56:57.196Z,10.10
2019-01-29T17:59:27.113Z,11.03
2019-01-29T18:01:56.958Z,10.73
2019-01-29T18:04:26.559Z,11.07
2019-01-29T18:06:56.424Z,8.77
2019-01-29T18:09:26.094Z,6.83
2019-01-29T18:11:56.925Z,20.47
2019-01-29T18:14:26.819Z,9.27
2019-01-29T18:16:56.684Z,6.93
2019-01-29T18:19:26.511Z,19.23
2019-01-29T18:21:57.280Z,27.03
2019-01-29T18:24:27.043Z,25.17
2019-01-29T18:26:56.912Z,34.47
2019-01-29T18:29:26.726Z,22.37
2019-01-29T18:31:56.603Z,9.87
2019-01-29T18:34:27.600Z,9.87
2019-01-29T18:36:57.436Z,11.30
2019-01-29T18:39:27.214Z,15.33
2019-01-29T18:41:57.121Z,16.07
2019-01-29T18:44:27.264Z,14.83
2019-01-29T18:46:57.290Z,15.80
2019-01-29T18:49:27.697Z,21.30
2019-01-29T18:51:57.708Z,23.17
2019-01-29T18:54:27.457Z,21.67
2019-01-29T18:56:57.147Z,36.07
2019-01-29T18:59:26.976Z,20.10
2019-01-29T19:01:57.017Z,18.23
2019-01-29T19:04:26.783Z,16.23
2019-01-29T19:06:56.681Z,15.17
2019-01-29T19:09:26.342Z,9.30
2019-01-29T19:11:56.133Z,11.03
2019-01-29T19:14:26.149Z,12.03
2019-01-29T19:16:56.016Z,13.43
2019-01-29T19:19:25.859Z,13.97
2019-01-29T19:21:55.773Z,14.77
2019-01-29T19:24:25.746Z,15.43
2019-01-29T19:26:55.614Z,12.80
2019-01-29T19:29:25.545Z,12.60
2019-01-29T19:31:55.485Z,13.47
2019-01-29T19:34:25.370Z,12.50
2019-01-29T19:36:56.219Z,12.27
2019-01-29T19:39:27.276Z,14.10
2019-01-29T19:41:57.161Z,12.03
2019-01-29T19:44:27.014Z,12.77
2019-01-29T19:46:56.707Z,11.60
2019-01-29T19:49:26.667Z,13.03
2019-01-29T19:51:56.646Z,15.13
2019-01-29T19:54:26.439Z,11.83
2019-01-29T19:56:56.416Z,12.47
2019-01-29T19:59:26.196Z,14.37
2019-01-29T20:01:56.112Z,14.90
2019-01-29T20:04:26.055Z,12.73
2019-01-29T20:06:55.919Z,13.27
2019-01-29T20:09:25.964Z,13.13
2019-01-29T20:11:55.865Z,12.23
2019-01-29T20:14:25.670Z,12.07
2019-01-29T20:16:56.734Z,11.90
2019-01-29T20:19:26.651Z,11.63
2019-01-29T20:21:56.351Z,12.77
2019-01-29T20:24:26.311Z,13.07
2019-01-29T20:26:56.083Z,16.20
2019-01-29T20:29:25.978Z,16.73
2019-01-29T20:31:55.972Z,12.67
2019-01-29T20:34:25.721Z,12.10
2019-01-29T20:36:55.553Z,12.43
2019-01-29T20:39:34.508Z,12.30
2019-01-29T20:41:57.025Z,12.07
2019-01-29T20:44:27.077Z,13.50
2019-01-29T20:46:56.752Z,12.53
2019-01-29T20:49:26.570Z,11.33
2019-01-29T20:51:56.545Z,12.63
2019-01-29T20:54:26.207Z,12.80
2019-01-29T20:56:56.006Z,12.57
2019-01-29T20:59:27.069Z,13.87
2019-01-29T21:01:56.952Z,15.03
2019-01-29T21:04:26.660Z,14.93
2019-01-29T21:06:57.732Z,17.47
2019-01-29T21:09:27.526Z,18.07
2019-01-29T21:11:57.442Z,16.30
2019-01-29T21:14:27.447Z,16.73
2019-01-29T21:16:57.382Z,19.37
2019-01-29T21:19:27.228Z,18.63
2019-01-29T21:21:58.237Z,18.60
2019-01-29T21:24:28.050Z,16.83
2019-01-29T21:26:57.965Z,15.80
2019-01-29T21:29:28.684Z,13.97
2019-01-29T21:31:58.305Z,16.30
2019-01-29T21:34:29.708Z,14.43
2019-01-29T21:36:59.520Z,16.27
2019-01-29T21:39:29.422Z,20.07
2019-01-29T21:41:59.409Z,17.23
2019-01-29T21:44:29.220Z,19.07
2019-01-29T21:46:59.049Z,15.93
2019-01-29T21:49:28.787Z,16.57
2019-01-29T21:51:58.577Z,16.50
2019-01-29T21:54:28.276Z,17.50
2019-01-29T21:56:58.200Z,15.10
2019-01-29T21:59:28.148Z,18.27
2019-01-29T22:01:57.921Z,17.40
2019-01-29T22:04:27.646Z,19.37
2019-01-29T22:06:57.542Z,19.17
2019-01-29T22:09:27.285Z,18.07
2019-01-29T22:11:56.964Z,18.20
2019-01-29T22:14:28.059Z,17.43
2019-01-29T22:16:57.922Z,17.50
2019-01-29T22:19:27.654Z,15.77
2019-01-29T22:21:57.513Z,16.63
2019-01-29T22:24:27.162Z,17.33
2019-01-29T22:26:57.019Z,18.13
2019-01-29T22:29:26.895Z,18.03
2019-01-29T22:31:56.627Z,18.27
2019-01-29T22:34:26.747Z,16.93
2019-01-29T22:36:57.667Z,17.60
2019-01-29T22:39:27.493Z,17.63
2019-01-29T22:41:57.484Z,15.87
2019-01-29T22:44:27.237Z,18.53
2019-01-29T22:46:57.032Z,15.50
2019-01-29T22:49:26.912Z,20.10
2019-01-29T22:51:56.758Z,15.60
2019-01-29T22:54:26.468Z,14.20
2019-01-29T22:56:56.222Z,14.57
2019-01-29T22:59:33.210Z,14.40
2019-01-29T23:01:57.660Z,14.33
2019-01-29T23:04:39.578Z,14.03
2019-01-29T23:07:34.157Z,12.80
2019-01-29T23:10:05.490Z,12.93
2019-01-29T23:12:35.119Z,15.27
2019-01-29T23:15:05.333Z,13.43
2019-01-29T23:17:35.298Z,13.73
2019-01-29T23:20:07.015Z,13.30
2019-01-29T23:22:37.059Z,14.97
2019-01-29T23:25:07.894Z,14.50
2019-01-29T23:27:37.681Z,14.80
2019-01-29T23:30:10.983Z,15.57
2019-01-29T23:32:41.102Z,14.47
2019-01-29T23:35:11.137Z,14.73
2019-01-29T23:37:40.934Z,12.33
2019-01-29T23:40:13.154Z,13.90
2019-01-29T23:42:43.048Z,12.33
2019-01-29T23:45:13.050Z,12.70
2019-01-29T23:47:42.898Z,12.93
2019-01-29T23:50:13.912Z,13.07
2019-01-29T23:52:43.707Z,14.30
2019-01-29T23:55:13.915Z,14.33
2019-01-29T23:57:43.639Z,13.77
